Terminal Aerodrome Forecast
Issued by NWS Wilmington, OH

Current Version | Previous Version | Graphics & Text | Print | Product List | Glossary On
Versions: 1 2 3 4 5 6 7 8 9 10 11 12 13 14
000
FTUS41 KILN 012300
TAFCMH
TAF
KCMH 012339Z 0200/0224 VRB03KT P6SM SKC
     FM021400 26006KT P6SM FEW060 SCT200
     FM022200 24005KT P6SM SKC=

USA.gov is the U.S. government's official web portal to all federal, state and local government web resources and services.